Time;durP1;ratioP1;P1;durP2;ratioP2;P2;SDS_P1;SDS_P2;PMS_P1;PMS_P2;Temp;Humidity;BMP_temperature;BMP_pressure;BME280_temperature;BME280_humidity;BME280_pressure;Samples;Min_cycle;Max_cycle;Signal;HPM_P1;HPM_P2
2021/10/20 00:01:45;;;;;;;21.77;14.60;;;;;;;11.09;80.03;100772.16;1707421;82;26547;-83
2021/10/20 00:04:12;;;;;;;21.30;15.65;;;;;;;11.09;80.04;100768.98;1741330;81;25347;-84
2021/10/20 00:06:39;;;;;;;23.10;15.03;;;;;;;11.10;80.06;100762.58;1740329;81;28219;-83
2021/10/20 00:09:06;;;;;;;21.52;14.05;;;;;;;11.11;80.04;100759.39;1687950;81;26641;-83
2021/10/20 00:11:34;;;;;;;22.02;15.18;;;;;;;11.11;80.08;100753.53;1711305;83;25986;-83
2021/10/20 00:14:01;;;;;;;19.62;12.65;;;;;;;11.11;80.09;100750.85;1737641;81;25919;-83
2021/10/20 00:16:28;;;;;;;24.20;14.20;;;;;;;11.10;80.03;100745.16;1740850;81;26575;-82
2021/10/20 00:18:56;;;;;;;19.30;14.28;;;;;;;11.09;80.04;100739.48;1629530;84;28198;-83
2021/10/20 00:21:24;;;;;;;23.15;14.70;;;;;;;11.10;80.06;100734.97;1696504;82;25849;-84
2021/10/20 00:23:52;;;;;;;22.15;14.00;;;;;;;11.11;80.07;100735.27;1714922;81;26097;-83
2021/10/20 00:26:19;;;;;;;22.58;14.87;;;;;;;11.10;80.01;100723.71;1730101;81;26689;-83
2021/10/20 00:28:47;;;;;;;18.67;13.28;;;;;;;11.11;80.06;100720.02;1685877;84;25812;-83
2021/10/20 00:31:14;;;;;;;27.65;14.25;;;;;;;11.10;80.02;100717.54;1707391;83;27461;-83
2021/10/20 00:33:41;;;;;;;20.12;14.18;;;;;;;11.10;80.09;100718.87;1731657;81;25804;-83
2021/10/20 00:36:08;;;;;;;24.02;14.70;;;;;;;11.11;80.14;100711.98;1648477;85;25988;-83
2021/10/20 00:38:35;;;;;;;25.95;13.90;;;;;;;11.10;80.11;100702.27;1681387;84;26415;-83
2021/10/20 00:41:02;;;;;;;19.90;14.10;;;;;;;11.11;80.23;100699.92;1709193;81;25849;-82
2021/10/20 00:43:30;;;;;;;24.47;15.05;;;;;;;11.12;80.21;100698.08;1703854;81;27436;-83
2021/10/20 00:45:57;;;;;;;23.10;14.10;;;;;;;11.13;80.25;100688.49;1637606;85;25834;-84
2021/10/20 00:48:24;;;;;;;22.90;15.03;;;;;;;11.15;80.17;100692.32;1649060;85;25946;-82
2021/10/20 00:50:52;;;;;;;21.25;15.10;;;;;;;11.15;80.13;100686.45;1629995;85;26468;-82
2021/10/20 00:53:19;;;;;;;22.73;13.78;;;;;;;11.15;80.18;100690.48;1660220;82;25888;-84
2021/10/20 00:55:46;;;;;;;22.35;14.05;;;;;;;11.16;80.16;100686.77;1656827;83;27199;-82
2021/10/20 00:58:14;;;;;;;21.90;13.75;;;;;;;11.17;80.07;100686.26;1713396;83;25994;-82
2021/10/20 01:00:41;;;;;;;23.02;13.95;;;;;;;11.18;80.13;100686.09;1664426;83;25851;-82
2021/10/20 01:03:08;;;;;;;21.35;14.00;;;;;;;11.20;80.12;100682.71;1726770;82;25878;-83
2021/10/20 01:05:35;;;;;;;19.30;13.98;;;;;;;11.22;80.11;100682.52;1697168;82;25786;-83
2021/10/20 01:08:02;;;;;;;20.70;13.98;;;;;;;11.24;80.05;100680.47;1730544;82;27476;-83
2021/10/20 01:10:29;;;;;;;20.60;15.23;;;;;;;11.24;80.09;100671.09;1667831;84;25902;-83
2021/10/20 01:12:56;;;;;;;21.05;13.30;;;;;;;11.25;80.04;100668.20;1667676;82;25881;-84
2021/10/20 01:15:27;;;;;;;19.70;13.15;;;;;;;11.25;80.01;100657.48;1699871;82;26675;-83
2021/10/20 01:17:54;;;;;;;18.77;12.55;;;;;;;11.27;80.01;100664.02;1728940;82;25914;-83
2021/10/20 01:20:29;;;;;;;19.40;13.95;;;;;;;11.27;80.08;100664.83;1674475;84;27057;-83
2021/10/20 01:22:56;;;;;;;19.70;13.83;;;;;;;11.30;80.08;100668.98;1720330;82;25840;-83
2021/10/20 01:25:23;;;;;;;17.23;13.95;;;;;;;11.30;80.10;100664.96;1667215;83;26049;-83
2021/10/20 01:27:50;;;;;;;21.30;14.23;;;;;;;11.32;80.10;100666.44;1726839;82;25917;-83
2021/10/20 01:30:17;;;;;;;17.98;12.40;;;;;;;11.34;80.18;100663.56;1678856;82;25913;-83
2021/10/20 01:32:44;;;;;;;18.37;13.40;;;;;;;11.34;80.25;100655.01;1701292;82;27553;-83
2021/10/20 01:35:12;;;;;;;22.80;13.93;;;;;;;11.35;80.41;100658.53;1696292;83;26041;-83
2021/10/20 01:37:39;;;;;;;24.75;14.30;;;;;;;11.34;80.71;100660.37;1730773;82;25967;-84
2021/10/20 01:40:08;;;;;;;22.55;14.70;;;;;;;11.34;81.09;100654.17;1687115;82;26361;-83
2021/10/20 01:42:36;;;;;;;21.17;14.38;;;;;;;11.32;81.21;100647.67;1700647;82;26622;-82
2021/10/20 01:45:11;;;;;;;23.73;15.20;;;;;;;11.30;81.59;100638.98;1685382;82;27463;-83
2021/10/20 01:47:38;;;;;;;22.62;14.90;;;;;;;11.30;81.70;100637.64;1716653;82;26589;-83
2021/10/20 01:50:09;;;;;;;20.50;12.82;;;;;;;11.30;81.75;100637.64;1686382;82;25805;-83
2021/10/20 01:52:36;;;;;;;18.65;13.25;;;;;;;11.29;81.92;100638.65;1693718;83;25772;-83
2021/10/20 01:55:13;;;;;;;20.57;14.40;;;;;;;11.28;82.04;100626.78;1696645;82;25918;-83
2021/10/20 01:57:40;;;;;;;20.65;13.98;;;;;;;11.29;82.17;100633.82;1734297;82;28212;-83
2021/10/20 02:00:09;;;;;;;20.17;14.13;;;;;;;11.26;82.37;100627.48;1714257;82;26189;-82
2021/10/20 02:02:42;;;;;;;23.85;14.45;;;;;;;11.25;82.46;100627.15;1658813;84;25876;-83
2021/10/20 02:05:12;;;;;;;18.40;13.93;;;;;;;11.25;82.76;100629.33;1738159;81;25826;-83
2021/10/20 02:07:40;;;;;;;21.25;15.05;;;;;;;11.25;82.80;100622.63;1722784;82;25995;-83
2021/10/20 02:10:14;;;;;;;17.50;12.98;;;;;;;11.26;82.78;100626.98;1702638;83;27473;-83
2021/10/20 02:12:42;;;;;;;21.33;14.75;;;;;;;11.27;83.06;100623.27;1688121;81;26000;-83
2021/10/20 02:15:10;;;;;;;21.17;14.47;;;;;;;11.28;83.17;100611.53;1718524;81;25825;-83
2021/10/20 02:17:37;;;;;;;18.67;13.22;;;;;;;11.29;83.19;100616.39;1744478;81;25842;-83
2021/10/20 02:20:13;;;;;;;21.87;14.00;;;;;;;11.29;83.37;100608.34;1696505;83;26269;-82
2021/10/20 02:22:42;;;;;;;21.73;14.25;;;;;;;11.30;83.46;100616.69;1695990;82;27563;-82
2021/10/20 02:25:10;;;;;;;18.92;14.35;;;;;;;11.30;83.61;100598.77;1702282;81;26083;-83
2021/10/20 02:27:38;;;;;;;21.20;14.38;;;;;;;11.30;83.58;100597.42;1724180;82;26163;-82
2021/10/20 02:30:07;;;;;;;20.00;14.60;;;;;;;11.32;83.86;100595.88;1724843;81;25886;-82
2021/10/20 02:32:34;;;;;;;21.37;15.00;;;;;;;11.31;83.89;100592.89;1723297;82;25885;-83
2021/10/20 02:35:04;;;;;;;18.77;14.68;;;;;;;11.30;84.02;100589.37;1694700;83;27420;-83
2021/10/20 02:37:30;;;;;;;22.27;14.68;;;;;;;11.30;84.19;100587.20;1743939;81;26025;-82
2021/10/20 02:39:57;;;;;;;23.98;15.15;;;;;;;11.30;84.26;100585.35;1680754;83;25835;-82
2021/10/20 02:42:24;;;;;;;22.32;15.32;;;;;;;11.31;84.33;100578.14;1708486;81;26715;-82
2021/10/20 02:44:51;;;;;;;20.82;15.48;;;;;;;11.32;84.45;100571.74;1717505;82;25766;-82
2021/10/20 02:47:18;;;;;;;20.45;14.53;;;;;;;11.32;84.58;100582.47;1747416;81;28354;-83
2021/10/20 02:49:45;;;;;;;22.10;14.53;;;;;;;11.32;84.69;100582.47;1711814;81;25780;-82
2021/10/20 02:52:13;;;;;;;21.15;15.03;;;;;;;11.30;84.65;100583.17;1695802;82;25890;-83
2021/10/20 02:54:40;;;;;;;20.52;15.75;;;;;;;11.31;84.77;100578.14;1711676;83;25845;-83
2021/10/20 02:57:07;;;;;;;21.65;15.25;;;;;;;11.34;84.83;100569.19;1743065;81;25297;-83
2021/10/20 02:59:34;;;;;;;20.40;16.12;;;;;;;11.37;84.84;100562.12;1698119;81;27511;-82
2021/10/20 03:02:01;;;;;;;30.55;14.85;;;;;;;11.38;84.89;100561.08;1710018;82;26019;-83
2021/10/20 03:04:29;;;;;;;20.27;14.78;;;;;;;11.39;84.87;100554.70;1722297;82;25798;-83
2021/10/20 03:06:56;;;;;;;22.25;15.28;;;;;;;11.41;84.91;100555.84;1719868;82;26501;-83
2021/10/20 03:09:23;;;;;;;21.27;14.75;;;;;;;11.41;84.93;100551.82;1670859;83;26581;-83
2021/10/20 03:11:50;;;;;;;21.45;15.45;;;;;;;11.41;85.00;100555.84;1678005;84;27438;-82
2021/10/20 03:14:17;;;;;;;19.98;15.05;;;;;;;11.41;85.11;100538.41;1677061;83;25820;-83
2021/10/20 03:16:44;;;;;;;18.42;14.43;;;;;;;11.42;85.12;100542.23;1755573;80;25426;-83
2021/10/20 03:19:11;;;;;;;22.20;15.58;;;;;;;11.43;85.16;100535.02;1696565;83;26392;-82
2021/10/20 03:21:38;;;;;;;25.10;14.95;;;;;;;11.42;85.07;100532.01;1690197;82;25806;-83
2021/10/20 03:24:05;;;;;;;23.45;14.85;;;;;;;11.43;85.22;100528.31;1662576;84;27568;-83
2021/10/20 03:26:32;;;;;;;20.25;14.18;;;;;;;11.43;85.11;100519.77;1694426;83;25994;-84
2021/10/20 03:28:59;;;;;;;20.95;13.68;;;;;;;11.45;85.23;100515.03;1678304;82;25984;-83
2021/10/20 03:31:26;;;;;;;22.48;14.50;;;;;;;11.46;85.25;100515.34;1685704;82;25909;-83
2021/10/20 03:33:53;;;;;;;20.00;14.43;;;;;;;11.47;85.36;100508.97;1693128;84;25650;-81
2021/10/20 03:36:20;;;;;;;18.73;14.25;;;;;;;11.49;85.29;100510.94;1729359;82;27447;-83
2021/10/20 03:38:47;;;;;;;18.12;12.93;;;;;;;11.52;85.26;100513.75;1667961;82;25931;-82
2021/10/20 03:41:14;;;;;;;18.07;13.65;;;;;;;11.53;85.29;100516.73;1701691;82;25817;-83
2021/10/20 03:43:41;;;;;;;19.12;13.15;;;;;;;11.55;85.19;100512.84;1673703;84;25951;-83
2021/10/20 03:46:08;;;;;;;17.73;12.98;;;;;;;11.56;85.17;100505.63;1736318;81;25838;-82
2021/10/20 03:48:35;;;;;;;17.05;13.20;;;;;;;11.59;85.08;100505.22;1670812;82;27573;-84
2021/10/20 03:51:03;;;;;;;14.45;11.65;;;;;;;11.60;85.02;100505.05;1713585;82;25718;-82
2021/10/20 03:53:30;;;;;;;16.95;12.50;;;;;;;11.61;85.07;100504.54;1708847;81;25924;-82
2021/10/20 03:55:58;;;;;;;16.40;11.65;;;;;;;11.64;85.00;100500.11;1723598;81;26741;-82
2021/10/20 03:58:25;;;;;;;17.02;12.53;;;;;;;11.63;84.97;100492.56;1681866;84;25354;-82
2021/10/20 04:00:54;;;;;;;16.25;12.63;;;;;;;11.65;84.94;100498.55;1696562;83;27559;-83
2021/10/20 04:03:21;;;;;;;18.65;12.07;;;;;;;11.67;84.88;100493.05;1694619;81;25909;-82
2021/10/20 04:05:48;;;;;;;16.52;12.20;;;;;;;11.69;84.84;100491.50;1718458;81;25989;-83
2021/10/20 04:08:15;;;;;;;17.67;12.18;;;;;;;11.70;84.79;100493.98;1708797;81;25822;-83
2021/10/20 04:10:43;;;;;;;19.37;12.10;;;;;;;11.72;84.76;100492.47;1684667;81;25833;-82
2021/10/20 04:13:10;;;;;;;17.07;11.48;;;;;;;11.75;84.67;100490.71;1733782;81;27558;-83
2021/10/20 04:15:37;;;;;;;16.27;11.83;;;;;;;11.76;84.82;100482.45;1722028;81;25816;-83
2021/10/20 04:18:04;;;;;;;16.10;11.53;;;;;;;11.77;85.01;100475.24;1734141;81;25890;-82
2021/10/20 04:20:31;;;;;;;15.68;11.95;;;;;;;11.76;85.06;100466.35;1677812;84;26058;-83
2021/10/20 04:22:58;;;;;;;16.97;10.78;;;;;;;11.77;85.21;100473.90;1681610;81;25929;-83
2021/10/20 04:25:25;;;;;;;19.30;11.88;;;;;;;11.77;85.34;100475.24;1750543;81;27659;-84
2021/10/20 04:27:52;;;;;;;14.75;10.68;;;;;;;11.77;85.33;100469.88;1725577;81;25925;-83
2021/10/20 04:30:21;;;;;;;14.15;11.25;;;;;;;11.76;85.56;100477.09;1686573;83;25877;-82
2021/10/20 04:32:48;;;;;;;15.80;11.20;;;;;;;11.75;85.55;100471.42;1671841;83;26160;-82
2021/10/20 04:35:17;;;;;;;15.93;11.78;;;;;;;11.76;85.59;100470.91;1725064;81;25397;-83
2021/10/20 04:37:44;;;;;;;14.93;11.57;;;;;;;11.77;85.65;100463.16;1738309;81;27570;-83
2021/10/20 04:40:12;;;;;;;17.02;11.48;;;;;;;11.78;85.75;100458.13;1677140;81;25865;-82
2021/10/20 04:42:40;;;;;;;16.17;10.53;;;;;;;11.80;85.75;100454.73;1694574;82;37227;-82
2021/10/20 04:45:08;;;;;;;17.32;11.28;;;;;;;11.81;85.98;100456.38;1715321;81;25885;-82
2021/10/20 04:47:35;;;;;;;15.18;10.82;;;;;;;11.82;85.85;100455.36;1741829;81;26248;-82
2021/10/20 04:50:06;;;;;;;14.55;11.22;;;;;;;11.82;86.02;100448.65;1700417;82;27558;-82
2021/10/20 04:52:33;;;;;;;15.20;11.00;;;;;;;11.84;86.21;100454.14;1685897;81;26632;-82
2021/10/20 04:55:00;;;;;;;20.85;10.85;;;;;;;11.83;86.58;100450.29;1692166;82;25935;-82
2021/10/20 04:57:27;;;;;;;14.07;10.82;;;;;;;11.83;87.13;100450.29;1744655;81;26475;-82
2021/10/20 04:59:54;;;;;;;17.35;11.48;;;;;;;11.82;87.17;100448.65;1704767;82;25895;-82
2021/10/20 05:02:21;;;;;;;14.10;10.60;;;;;;;11.79;87.39;100443.16;1717850;82;27571;-82
2021/10/20 05:04:48;;;;;;;12.80;11.12;;;;;;;11.79;87.34;100441.82;1712349;80;25764;-83
2021/10/20 05:07:15;;;;;;;13.98;11.28;;;;;;;11.78;87.42;100432.64;1720981;80;25373;-83
2021/10/20 05:09:42;;;;;;;15.55;10.82;;;;;;;11.79;87.54;100432.94;1732353;82;25952;-83
2021/10/20 05:12:09;;;;;;;15.88;10.65;;;;;;;11.79;87.57;100427.56;1694283;81;25801;-82
2021/10/20 05:14:36;;;;;;;13.68;11.05;;;;;;;11.80;87.85;100432.76;1685228;82;27459;-84
2021/10/20 05:17:04;;;;;;;15.15;11.18;;;;;;;11.79;87.85;100427.56;1756072;80;25897;-82
2021/10/20 05:19:31;;;;;;;12.82;10.40;;;;;;;11.79;88.19;100427.06;1742257;81;26574;-83
2021/10/20 05:21:58;;;;;;;16.95;11.88;;;;;;;11.78;88.50;100425.42;1704896;81;25920;-82
2021/10/20 05:24:25;;;;;;;17.10;11.70;;;;;;;11.79;88.79;100423.55;1671651;82;25833;-82
2021/10/20 05:26:54;;;;;;;18.02;11.20;;;;;;;11.79;88.84;100423.55;1725273;81;27536;-83
2021/10/20 05:29:21;;;;;;;19.87;11.90;;;;;;;11.79;89.02;100423.03;1673632;83;25677;-82
2021/10/20 05:31:49;;;;;;;13.32;10.53;;;;;;;11.78;89.14;100419.22;1685544;84;25918;-82
2021/10/20 05:34:16;;;;;;;15.93;11.48;;;;;;;11.77;89.42;100417.04;1678323;82;25955;-82
2021/10/20 05:36:43;;;;;;;18.80;11.78;;;;;;;11.77;89.59;100421.57;1745777;81;26040;-82
2021/10/20 05:39:10;;;;;;;17.55;11.40;;;;;;;11.77;89.97;100421.57;1710738;82;27122;-83
2021/10/20 05:41:39;;;;;;;17.02;12.03;;;;;;;11.76;90.05;100415.38;1710806;80;25937;-82
2021/10/20 05:44:07;;;;;;;16.23;11.57;;;;;;;11.75;90.35;100418.27;1728854;80;25716;-82
2021/10/20 05:46:34;;;;;;;18.00;12.00;;;;;;;11.74;91.06;100417.96;1734311;82;25939;-83
2021/10/20 05:49:01;;;;;;;15.83;11.50;;;;;;;11.71;91.13;100415.16;1736371;81;25842;-83
2021/10/20 05:51:28;;;;;;;16.12;11.85;;;;;;;11.71;91.32;100411.13;1669908;84;27630;-82
2021/10/20 05:53:55;;;;;;;16.35;11.70;;;;;;;11.70;91.94;100417.52;1743095;81;25923;-82
2021/10/20 05:56:23;;;;;;;18.62;12.35;;;;;;;11.69;92.25;100405.64;1717880;82;25880;-82
2021/10/20 05:58:50;;;;;;;18.60;13.28;;;;;;;11.68;92.27;100414.20;1702853;81;26598;-82
2021/10/20 06:01:19;;;;;;;14.93;12.33;;;;;;;11.68;92.27;100410.17;1676341;82;25821;-83
2021/10/20 06:03:46;;;;;;;15.93;12.05;;;;;;;11.68;92.65;100411.52;1685913;82;28408;-82
2021/10/20 06:06:13;;;;;;;16.82;12.60;;;;;;;11.71;92.69;100412.98;1744028;81;25926;-82
2021/10/20 06:08:40;;;;;;;20.05;13.08;;;;;;;11.72;93.04;100413.31;1705848;82;25786;-83
2021/10/20 06:11:07;;;;;;;19.67;13.55;;;;;;;11.72;93.28;100401.23;1728399;81;25920;-82
2021/10/20 06:13:35;;;;;;;16.90;12.68;;;;;;;11.74;93.31;100406.69;1698312;81;25933;-82
2021/10/20 06:16:02;;;;;;;21.23;14.53;;;;;;;11.75;93.40;100405.67;1736450;81;27526;-83
2021/10/20 06:18:29;;;;;;;18.95;13.90;;;;;;;11.75;93.81;100405.67;1711290;81;26269;-83
2021/10/20 06:20:57;;;;;;;20.17;13.50;;;;;;;11.77;93.72;100405.47;1658623;84;26002;-82
2021/10/20 06:23:24;;;;;;;19.87;14.15;;;;;;;11.78;94.87;100402.61;1699476;82;25872;-83
2021/10/20 06:25:51;;;;;;;14.55;11.80;;;;;;;11.80;94.80;100402.41;1710378;81;26024;-82
2021/10/20 06:28:18;;;;;;;20.85;13.58;;;;;;;11.81;95.67;100396.83;1739629;81;28330;-83
2021/10/20 06:30:45;;;;;;;15.65;12.43;;;;;;;11.84;95.35;100400.97;1690222;82;25367;-83
2021/10/20 06:33:12;;;;;;;20.08;13.50;;;;;;;11.88;95.67;100399.55;1685314;81;25867;-83
2021/10/20 06:35:39;;;;;;;18.95;14.15;;;;;;;11.93;95.86;100399.78;1752507;81;25872;-82
2021/10/20 06:38:06;;;;;;;20.57;13.25;;;;;;;11.94;96.72;100407.63;1704128;82;25862;-82
2021/10/20 06:40:33;;;;;;;20.50;13.15;;;;;;;11.96;96.60;100403.39;1685355;84;28014;-83
2021/10/20 06:43:01;;;;;;;19.40;14.18;;;;;;;11.97;96.88;100400.52;1700938;81;26607;-82
2021/10/20 06:45:28;;;;;;;19.07;13.70;;;;;;;12.01;96.63;100396.41;1731465;82;25863;-82
2021/10/20 06:47:55;;;;;;;17.60;13.55;;;;;;;12.04;96.92;100393.30;1751240;80;26314;-83
2021/10/20 06:50:22;;;;;;;15.68;13.22;;;;;;;12.07;96.78;100400.13;1709387;82;25999;-82
2021/10/20 06:52:49;;;;;;;16.52;12.18;;;;;;;12.09;97.73;100389.52;1683326;82;27532;-83
2021/10/20 06:55:16;;;;;;;22.65;13.45;;;;;;;12.10;97.63;100387.66;1731091;82;26254;-83
2021/10/20 06:57:44;;;;;;;16.97;13.15;;;;;;;12.11;97.32;100389.30;1705945;83;25647;-82
2021/10/20 07:00:12;;;;;;;17.07;13.60;;;;;;;12.13;97.39;100387.24;1685397;82;25959;-83
2021/10/20 07:02:40;;;;;;;19.85;12.70;;;;;;;12.15;97.36;100395.41;1681856;82;26007;-83
2021/10/20 07:18:51;;;;;;;24.10;15.53;;;;;;;13.09;95.49;100367.95;1774294;77;25862;-82
2021/10/20 07:21:19;;;;;;;16.85;13.13;;;;;;;12.99;96.01;100371.05;1671714;85;25952;-81
2021/10/20 07:23:46;;;;;;;19.55;12.90;;;;;;;12.95;96.68;100364.43;1648672;84;27381;-81
2021/10/20 07:26:17;;;;;;;23.50;13.22;;;;;;;12.96;96.66;100366.58;1748275;81;25867;-82
2021/10/20 07:28:42;;;;;;;18.12;13.13;;;;;;;12.98;96.60;100359.16;1731155;82;25798;-82
2021/10/20 07:31:09;;;;;;;14.13;12.07;;;;;;;13.01;96.60;100365.45;1649427;84;26440;-82
2021/10/20 07:33:36;;;;;;;15.28;10.98;;;;;;;13.05;96.72;100366.71;1671349;84;26328;-82
2021/10/20 07:36:03;;;;;;;19.23;11.93;;;;;;;13.13;96.69;100362.45;1700603;84;27549;-82
2021/10/20 07:38:30;;;;;;;13.48;10.90;;;;;;;13.18;96.35;100366.70;1700092;82;25821;-83
2021/10/20 07:40:57;;;;;;;19.92;10.78;;;;;;;13.22;96.12;100361.21;1605334;84;26146;-82
2021/10/20 07:43:24;;;;;;;16.70;10.58;;;;;;;13.26;95.76;100357.61;1671105;84;25761;-82
2021/10/20 07:45:51;;;;;;;14.28;11.43;;;;;;;13.30;95.72;100354.80;1700397;83;25868;-82
2021/10/20 07:48:18;;;;;;;11.83;10.15;;;;;;;13.36;95.65;100353.44;1671012;84;27551;-83
2021/10/20 07:50:45;;;;;;;16.67;10.50;;;;;;;13.42;95.46;100352.59;1647697;83;25889;-82
2021/10/20 07:53:13;;;;;;;11.53;9.20;;;;;;;13.49;95.31;100353.92;1626028;84;25984;-82
2021/10/20 07:55:40;;;;;;;11.85;9.58;;;;;;;13.58;95.14;100352.66;1700241;82;25793;-83
2021/10/20 07:58:07;;;;;;;17.20;10.20;;;;;;;13.62;94.49;100349.84;1727749;82;25847;-82
2021/10/20 08:00:34;;;;;;;14.85;10.13;;;;;;;13.67;94.33;100348.67;1651047;83;27461;-83
2021/10/20 08:03:02;;;;;;;15.85;10.82;;;;;;;13.74;94.19;100348.97;1687008;81;25910;-82
2021/10/20 08:05:29;;;;;;;12.73;10.48;;;;;;;13.82;93.97;100345.20;1730779;81;25850;-83
2021/10/20 08:07:58;;;;;;;15.72;10.38;;;;;;;13.88;93.43;100341.64;1738869;81;25869;-83
2021/10/20 08:10:29;;;;;;;14.20;10.20;;;;;;;13.94;93.29;100339.47;1663768;82;25776;-83
2021/10/20 08:12:57;;;;;;;17.57;10.68;;;;;;;13.98;92.44;100340.69;1702044;82;28258;-82
2021/10/20 08:15:26;;;;;;;15.38;9.73;;;;;;;14.02;92.39;100331.13;1723910;82;25637;-83
2021/10/20 08:17:53;;;;;;;11.50;9.35;;;;;;;14.06;91.93;100326.13;1732808;81;25706;-83
2021/10/20 08:20:23;;;;;;;14.28;9.10;;;;;;;14.10;91.87;100320.61;1684008;83;25938;-82
2021/10/20 08:22:50;;;;;;;12.10;9.15;;;;;;;14.15;91.41;100326.19;1691440;81;25816;-81
2021/10/20 08:25:18;;;;;;;15.38;9.18;;;;;;;14.18;91.11;100333.30;1739459;81;28289;-83
2021/10/20 08:27:45;;;;;;;11.80;9.43;;;;;;;14.23;91.01;100329.45;1736847;81;25824;-83
2021/10/20 08:30:17;;;;;;;13.45;9.68;;;;;;;14.29;90.89;100319.17;1661248;82;25907;-82
2021/10/20 08:32:50;;;;;;;14.33;8.98;;;;;;;14.34;90.60;100311.28;1665149;82;25975;-84
2021/10/20 08:35:18;;;;;;;11.80;8.73;;;;;;;14.41;90.45;100307.19;1733878;82;25834;-84
2021/10/20 08:37:54;;;;;;;11.55;8.58;;;;;;;14.45;89.92;100303.84;1736761;81;28196;-84
2021/10/20 08:40:17;;;;;;;12.20;8.23;;;;;;;14.51;89.78;100298.09;1688669;82;25590;-83
2021/10/20 08:42:44;;;;;;;11.75;8.60;;;;;;;14.57;89.82;100293.99;1671259;82;25179;-82
2021/10/20 08:45:12;;;;;;;11.48;8.95;;;;;;;14.64;89.37;100288.55;1738097;81;25911;-83
2021/10/20 08:47:39;;;;;;;11.70;8.40;;;;;;;14.71;89.51;100283.94;1699548;82;25784;-82
2021/10/20 08:50:09;;;;;;;11.25;8.45;;;;;;;14.78;88.72;100275.24;1672282;83;28263;-83
2021/10/20 08:52:36;;;;;;;11.93;8.57;;;;;;;14.91;87.91;100273.77;1670084;82;25991;-83
2021/10/20 08:55:04;;;;;;;12.23;9.00;;;;;;;14.91;87.91;100273.77;1723387;82;26125;-82
2021/10/20 08:57:31;;;;;;;11.57;7.90;;;;;;;14.96;87.78;100267.71;1728321;81;25819;-83
2021/10/20 09:00:03;;;;;;;11.60;8.05;;;;;;;15.02;87.73;100278.44;1664260;82;25370;-83
2021/10/20 09:02:36;;;;;;;10.43;8.18;;;;;;;15.10;87.49;100282.70;1702727;83;27420;-83
2021/10/20 09:05:00;;;;;;;9.40;7.53;;;;;;;15.18;87.48;100281.08;1719734;82;25863;-83
2021/10/20 09:07:27;;;;;;;9.83;7.33;;;;;;;15.25;86.57;100279.94;1722164;82;25767;-83
2021/10/20 09:09:54;;;;;;;11.38;7.87;;;;;;;15.30;86.21;100272.01;1687977;82;26037;-83
2021/10/20 09:12:27;;;;;;;9.83;7.45;;;;;;;15.34;86.21;100270.50;1664957;83;25895;-83
2021/10/20 09:14:59;;;;;;;10.85;8.40;;;;;;;15.39;85.25;100270.66;1733643;82;27433;-82
2021/10/20 09:17:31;;;;;;;8.33;7.40;;;;;;;15.43;86.01;100263.80;1729828;82;25897;-83
2021/10/20 09:20:00;;;;;;;12.85;7.87;;;;;;;15.47;85.88;100264.15;1695860;82;25907;-83
2021/10/20 09:22:27;;;;;;;13.38;8.33;;;;;;;15.50;85.66;100260.18;1696927;82;25790;-83
2021/10/20 09:24:54;;;;;;;8.60;7.12;;;;;;;15.53;85.25;100265.11;1718945;82;26625;-82
2021/10/20 09:27:25;;;;;;;11.08;8.00;;;;;;;15.58;84.66;100259.86;1723713;82;27635;-83
2021/10/20 09:30:13;;;;;;;8.48;7.25;;;;;;;15.62;84.52;100275.91;1669735;82;26533;-83
2021/10/20 09:32:41;;;;;;;11.00;7.72;;;;;;;15.68;84.96;100260.97;1688437;82;26350;-83
2021/10/20 09:35:12;;;;;;;11.90;8.73;;;;;;;15.77;84.92;100261.48;1701296;82;26048;-84
2021/10/20 09:37:40;;;;;;;9.58;7.45;;;;;;;15.83;83.64;100263.26;1726026;82;25577;-83
2021/10/20 09:40:11;;;;;;;9.63;7.08;;;;;;;15.87;84.10;100257.17;1667461;82;27520;-84
2021/10/20 09:42:47;;;;;;;11.78;6.87;;;;;;;15.91;83.47;100255.66;1688598;82;33184;-84
2021/10/20 09:45:18;;;;;;;10.03;7.17;;;;;;;15.95;83.40;100255.49;1732903;82;25765;-83
2021/10/20 09:47:45;;;;;;;9.10;6.62;;;;;;;16.01;83.40;100254.59;1724693;82;25910;-83
2021/10/20 09:50:14;;;;;;;10.78;6.95;;;;;;;16.07;83.05;100251.48;1657940;82;26002;-84
2021/10/20 09:52:51;;;;;;;11.97;7.28;;;;;;;16.12;82.02;100248.38;1700834;82;27436;-84
2021/10/20 09:55:30;;;;;;;9.75;6.60;;;;;;;16.18;82.08;100242.59;1702027;83;25871;-83
2021/10/20 09:58:02;;;;;;;9.23;6.25;;;;;;;16.23;82.85;100235.42;1701102;83;25594;-84
2021/10/20 10:00:30;;;;;;;8.75;6.80;;;;;;;16.30;82.07;100236.67;1686857;82;25878;-83
2021/10/20 10:02:57;;;;;;;10.58;7.50;;;;;;;16.37;82.39;100233.86;1679214;82;25846;-84
2021/10/20 10:05:27;;;;;;;12.95;7.10;;;;;;;16.46;81.75;100231.95;1715412;82;28462;-83
2021/10/20 10:07:54;;;;;;;9.48;6.75;;;;;;;16.53;81.68;100225.91;1692814;83;25844;-82
2021/10/20 10:10:22;;;;;;;8.28;6.28;;;;;;;16.59;81.66;100220.95;1728176;80;25683;-84
2021/10/20 10:13:00;;;;;;;9.90;6.72;;;;;;;16.63;81.17;100218.06;1724980;80;25202;-84
2021/10/20 10:15:29;;;;;;;8.60;6.12;;;;;;;16.67;81.08;100221.11;1744649;80;25561;-84
2021/10/20 10:17:57;;;;;;;8.43;5.95;;;;;;;16.71;80.37;100219.58;1772462;80;27098;-83
2021/10/20 10:20:31;;;;;;;9.20;6.30;;;;;;;16.73;79.48;100212.05;1696892;81;26205;-84
2021/10/20 10:23:02;;;;;;;11.12;6.37;;;;;;;16.76;79.88;100217.00;1727996;80;25865;-83
2021/10/20 10:25:38;;;;;;;10.00;6.00;;;;;;;16.81;79.61;100208.97;1700680;84;26509;-83
2021/10/20 10:28:21;;;;;;;8.43;6.17;;;;;;;16.88;80.02;100206.45;1716755;82;25870;-83
2021/10/20 10:30:59;;;;;;;6.95;5.53;;;;;;;16.94;79.44;100197.38;1665807;83;27558;-84
2021/10/20 10:33:29;;;;;;;11.38;6.15;;;;;;;17.02;78.91;100200.27;1702824;82;25408;-84
2021/10/20 10:36:13;;;;;;;9.28;6.95;;;;;;;17.07;79.18;100196.30;1724922;82;26520;-84
2021/10/20 10:38:51;;;;;;;8.68;6.35;;;;;;;17.13;78.74;100195.34;1692985;82;26322;-83
2021/10/20 10:41:24;;;;;;;8.10;6.47;;;;;;;17.18;78.71;100189.21;1727284;82;25894;-85
2021/10/20 10:44:11;;;;;;;7.37;5.50;;;;;;;17.23;78.71;100183.39;1679825;82;27204;-84
2021/10/20 10:46:48;;;;;;;8.63;6.05;;;;;;;17.30;77.72;100184.61;1737475;82;25948;-85
2021/10/20 10:49:28;;;;;;;8.85;6.42;;;;;;;17.37;78.01;100182.03;1726397;82;25811;-83
2021/10/20 10:52:18;;;;;;;8.57;5.93;;;;;;;17.44;77.03;100175.95;1681502;82;26241;-84
2021/10/20 10:54:59;;;;;;;7.62;5.35;;;;;;;17.48;76.33;100175.76;1713900;80;25843;-83
2021/10/20 10:57:52;;;;;;;8.65;5.30;;;;;;;17.52;75.95;100172.89;1692210;82;28221;-83
2021/10/20 11:00:24;;;;;;;8.10;5.45;;;;;;;17.56;75.68;100162.38;1735485;81;25826;-84
2021/10/20 11:02:55;;;;;;;8.73;5.62;;;;;;;17.58;75.85;100161.08;1712893;82;25864;-84
2021/10/20 11:05:28;;;;;;;7.55;5.20;;;;;;;17.62;76.07;100162.23;1666403;82;25861;-84
2021/10/20 11:08:10;;;;;;;6.42;5.35;;;;;;;17.64;74.92;100156.59;1690947;82;25849;-83
2021/10/20 11:10:41;;;;;;;8.68;5.95;;;;;;;17.63;75.09;100159.83;1735001;81;28316;-85
2021/10/20 11:13:09;;;;;;;8.50;5.37;;;;;;;17.67;76.06;100154.21;1702647;82;25699;-84
2021/10/20 11:15:37;;;;;;;7.75;5.25;;;;;;;17.71;75.43;100147.77;1675535;82;25636;-84
2021/10/20 11:18:05;;;;;;;6.62;5.33;;;;;;;17.76;75.30;100137.55;1697464;81;25913;-84
2021/10/20 11:20:36;;;;;;;8.78;5.37;;;;;;;17.83;75.55;100143.64;1735843;80;25708;-84
2021/10/20 11:23:07;;;;;;;7.17;5.55;;;;;;;17.88;74.40;100130.20;1703006;83;28004;-83
2021/10/20 11:25:41;;;;;;;6.37;5.10;;;;;;;17.93;74.20;100136.51;1684991;81;32615;-83
2021/10/20 11:28:09;;;;;;;6.00;5.33;;;;;;;18.00;74.73;100127.69;1693673;81;25803;-84
2021/10/20 11:30:38;;;;;;;6.62;5.42;;;;;;;18.07;74.30;100119.40;1714083;83;26595;-84
2021/10/20 11:33:13;;;;;;;6.97;4.92;;;;;;;18.12;74.58;100110.80;1697055;81;26707;-84